Time;durP1;ratioP1;P1;durP2;ratioP2;P2;SDS_P1;SDS_P2;PMS_P1;PMS_P2;Temp;Humidity;BMP_temperature;BMP_pressure;BME280_temperature;BME280_humidity;BME280_pressure;Samples;Min_cycle;Max_cycle;Signal;HPM_P1;HPM_P2
2023/12/20 00:01:35;;;;;;;;;;;18.90;66.00;;;;;;5091047;28;1713;-69
2023/12/20 00:04:01;;;;;;;;;;;18.90;66.00;;;;;;5057608;28;1113;-70
2023/12/20 00:06:26;;;;;;;;;;;18.90;66.00;;;;;;5055383;28;2178;-70
2023/12/20 00:08:52;;;;;;;;;;;18.90;66.00;;;;;;5063723;28;1344;-70
2023/12/20 00:11:17;;;;;;;;;;;18.90;66.00;;;;;;5063293;28;1421;-70
2023/12/20 00:13:42;;;;;;;;;;;18.90;66.00;;;;;;5065315;28;1282;-69
2023/12/20 00:16:09;;;;;;;;;;;18.90;66.10;;;;;;5062338;28;971;-70
2023/12/20 00:18:34;;;;;;;;;;;18.90;66.00;;;;;;5094127;28;1456;-69
2023/12/20 00:21:00;;;;;;;;;;;18.90;66.00;;;;;;5059491;28;1905;-68
2023/12/20 00:23:25;;;;;;;;;;;18.90;66.10;;;;;;5061539;28;1538;-69
2023/12/20 00:25:51;;;;;;;;;;;18.90;66.00;;;;;;5060609;28;1460;-68
2023/12/20 00:28:16;;;;;;;;;;;18.90;66.00;;;;;;5062337;28;1392;-68
2023/12/20 00:30:41;;;;;;;;;;;18.90;66.00;;;;;;5059547;28;1303;-69
2023/12/20 00:33:07;;;;;;;;;;;18.90;66.10;;;;;;5060581;28;1338;-69
2023/12/20 00:35:32;;;;;;;;;;;18.90;66.00;;;;;;5058174;28;1319;-68
2023/12/20 00:37:58;;;;;;;;;;;18.90;66.10;;;;;;5060095;28;1245;-72
2023/12/20 00:40:23;;;;;;;;;;;18.90;66.10;;;;;;5060058;28;1887;-71
2023/12/20 00:42:49;;;;;;;;;;;18.90;66.80;;;;;;5059661;28;1561;-71
2023/12/20 00:45:14;;;;;;;;;;;18.90;66.10;;;;;;5057743;28;1302;-71
2023/12/20 00:47:40;;;;;;;;;;;18.90;66.10;;;;;;5060632;28;1377;-70
2023/12/20 00:50:06;;;;;;;;;;;18.90;66.10;;;;;;5093255;28;1345;-70
2023/12/20 00:52:31;;;;;;;;;;;18.90;66.10;;;;;;5060432;28;1303;-69
2023/12/20 00:54:59;;;;;;;;;;;18.90;66.10;;;;;;5091665;28;1431;-70
2023/12/20 00:57:25;;;;;;;;;;;18.90;66.10;;;;;;5092151;28;1363;-70
2023/12/20 00:59:50;;;;;;;;;;;18.80;66.00;;;;;;5058710;28;1978;-70
2023/12/20 01:02:16;;;;;;;;;;;18.90;66.10;;;;;;5081174;28;1296;-70
2023/12/20 01:04:41;;;;;;;;;;;18.90;66.80;;;;;;5060261;28;1655;-70
2023/12/20 01:07:07;;;;;;;;;;;18.90;66.10;;;;;;5059873;28;1275;-70
2023/12/20 01:09:33;;;;;;;;;;;18.80;66.10;;;;;;5060748;28;1309;-70
2023/12/20 01:11:59;;;;;;;;;;;18.90;66.10;;;;;;5056810;28;1470;-70
2023/12/20 01:14:24;;;;;;;;;;;18.80;66.10;;;;;;5059190;28;1537;-71
2023/12/20 01:16:49;;;;;;;;;;;18.80;66.10;;;;;;5061263;28;1449;-70
2023/12/20 01:19:16;;;;;;;;;;;18.80;66.10;;;;;;5056669;28;1906;-70
2023/12/20 01:21:41;;;;;;;;;;;18.80;66.10;;;;;;5064579;28;1257;-70
2023/12/20 01:24:07;;;;;;;;;;;18.80;66.10;;;;;;5058946;28;1436;-69
2023/12/20 01:26:32;;;;;;;;;;;18.80;66.10;;;;;;5060125;28;1449;-69
2023/12/20 01:28:57;;;;;;;;;;;18.80;66.10;;;;;;5058184;28;1350;-69
2023/12/20 01:31:23;;;;;;;;;;;18.80;66.10;;;;;;5057459;28;1377;-69
2023/12/20 01:33:48;;;;;;;;;;;18.80;66.10;;;;;;5061483;28;1257;-69
2023/12/20 01:36:14;;;;;;;;;;;18.80;66.10;;;;;;5060255;28;1111;-69
2023/12/20 01:38:39;;;;;;;;;;;18.80;66.10;;;;;;5058438;28;1142;-71
2023/12/20 01:41:05;;;;;;;;;;;18.80;66.20;;;;;;5058765;28;1898;-69
2023/12/20 01:43:30;;;;;;;;;;;18.80;66.10;;;;;;5092147;28;1490;-68
2023/12/20 01:45:57;;;;;;;;;;;18.80;66.10;;;;;;5058529;28;1360;-69
2023/12/20 01:48:22;;;;;;;;;;;18.80;66.10;;;;;;5059071;28;1443;-69
2023/12/20 01:50:48;;;;;;;;;;;18.80;66.10;;;;;;5089505;28;1324;-69
2023/12/20 01:53:13;;;;;;;;;;;18.80;66.10;;;;;;5060060;28;1702;-70
2023/12/20 01:55:39;;;;;;;;;;;18.80;66.20;;;;;;5059167;28;1826;-70
2023/12/20 01:58:05;;;;;;;;;;;18.80;66.20;;;;;;5092703;28;1303;-71
2023/12/20 02:00:30;;;;;;;;;;;18.80;66.20;;;;;;5058494;28;1965;-69
2023/12/20 02:02:56;;;;;;;;;;;18.80;66.20;;;;;;5090815;28;1516;-68
2023/12/20 02:05:21;;;;;;;;;;;18.80;66.10;;;;;;5087836;28;1397;-69
2023/12/20 02:07:47;;;;;;;;;;;18.80;66.20;;;;;;5089844;28;1295;-69
2023/12/20 02:10:12;;;;;;;;;;;18.80;66.10;;;;;;5066612;28;1484;-68
2023/12/20 02:12:38;;;;;;;;;;;18.80;66.20;;;;;;5090426;28;1260;-68
2023/12/20 02:15:04;;;;;;;;;;;18.80;66.10;;;;;;5061305;28;1317;-68
2023/12/20 02:17:29;;;;;;;;;;;18.80;66.20;;;;;;5057331;28;1106;-68
2023/12/20 02:19:55;;;;;;;;;;;18.80;66.20;;;;;;5056029;28;1968;-67
2023/12/20 02:22:20;;;;;;;;;;;18.70;66.10;;;;;;5059540;28;1359;-69
2023/12/20 02:24:46;;;;;;;;;;;18.70;66.10;;;;;;5058530;28;1444;-69
2023/12/20 02:27:11;;;;;;;;;;;18.70;66.10;;;;;;5059250;28;1382;-69
2023/12/20 02:29:36;;;;;;;;;;;18.70;66.10;;;;;;5057866;28;1389;-69
2023/12/20 02:32:02;;;;;;;;;;;18.80;66.20;;;;;;5057381;28;1260;-69
2023/12/20 02:34:28;;;;;;;;;;;18.70;66.10;;;;;;5061990;28;1517;-68
2023/12/20 02:36:53;;;;;;;;;;;18.70;66.10;;;;;;5058167;28;1394;-68
2023/12/20 02:39:19;;;;;;;;;;;18.70;66.10;;;;;;5089309;28;1934;-68
2023/12/20 02:41:44;;;;;;;;;;;18.70;66.10;;;;;;5087665;28;1406;-68
2023/12/20 02:44:10;;;;;;;;;;;18.70;66.10;;;;;;5058366;28;1220;-68
2023/12/20 02:46:35;;;;;;;;;;;18.70;66.20;;;;;;5056251;28;1244;-68
2023/12/20 02:49:01;;;;;;;;;;;18.70;66.20;;;;;;5059183;28;1374;-70
2023/12/20 02:51:26;;;;;;;;;;;18.70;66.20;;;;;;5058226;28;1482;-68
2023/12/20 02:53:52;;;;;;;;;;;18.70;66.20;;;;;;5058629;28;1415;-68
2023/12/20 02:56:17;;;;;;;;;;;18.70;66.20;;;;;;5058394;28;1367;-68
2023/12/20 02:58:43;;;;;;;;;;;18.70;66.20;;;;;;5058045;28;1736;-68
2023/12/20 03:01:08;;;;;;;;;;;18.70;66.20;;;;;;5056029;28;1988;-68
2023/12/20 03:03:34;;;;;;;;;;;18.70;66.20;;;;;;5057669;28;1377;-68
2023/12/20 03:05:59;;;;;;;;;;;18.70;66.20;;;;;;5058536;28;1387;-68
2023/12/20 03:08:25;;;;;;;;;;;18.70;66.20;;;;;;5088818;28;1473;-68
2023/12/20 03:10:50;;;;;;;;;;;18.70;66.20;;;;;;5057174;28;1352;-68
2023/12/20 03:13:16;;;;;;;;;;;18.70;66.20;;;;;;5056723;28;1274;-70
2023/12/20 03:15:41;;;;;;;;;;;18.70;66.20;;;;;;5057225;28;1069;-68
2023/12/20 03:18:06;;;;;;;;;;;18.70;66.20;;;;;;5058237;28;859;-68
2023/12/20 03:20:34;;;;;;;;;;;18.70;66.20;;;;;;5057233;28;1913;-69
2023/12/20 03:23:00;;;;;;;;;;;18.70;66.20;;;;;;5056896;28;1045;-68
2023/12/20 03:25:25;;;;;;;;;;;18.70;66.30;;;;;;5057600;28;1175;-68
2023/12/20 03:27:50;;;;;;;;;;;18.70;66.20;;;;;;5057693;28;1321;-68
2023/12/20 03:30:16;;;;;;;;;;;18.70;66.20;;;;;;5057335;28;1272;-68
2023/12/20 03:32:41;;;;;;;;;;;18.70;66.20;;;;;;5058136;28;1361;-68
2023/12/20 03:35:07;;;;;;;;;;;18.70;66.20;;;;;;5059477;28;1409;-68
2023/12/20 03:37:32;;;;;;;;;;;18.70;66.20;;;;;;5056848;28;1383;-68
2023/12/20 03:39:58;;;;;;;;;;;18.70;66.20;;;;;;5058502;28;1980;-68
2023/12/20 03:42:23;;;;;;;;;;;18.70;66.20;;;;;;5060264;28;1466;-68
2023/12/20 03:44:49;;;;;;;;;;;18.70;66.30;;;;;;5061317;28;1395;-68
2023/12/20 03:47:14;;;;;;;;;;;18.70;66.20;;;;;;5059613;28;1235;-68
2023/12/20 03:49:43;;;;;;;;;;;18.70;66.20;;;;;;5062403;28;1347;-69
2023/12/20 03:52:08;;;;;;;;;;;18.70;66.30;;;;;;5093391;28;1178;-69
2023/12/20 03:54:35;;;;;;;;;;;18.70;66.20;;;;;;5076814;28;1363;-69
2023/12/20 03:57:00;;;;;;;;;;;18.70;66.20;;;;;;5065747;28;1466;-68
2023/12/20 03:59:25;;;;;;;;;;;18.70;66.30;;;;;;5061503;28;2335;-68
2023/12/20 04:01:51;;;;;;;;;;;18.70;66.20;;;;;;5060574;28;1270;-68
2023/12/20 04:04:16;;;;;;;;;;;18.70;66.20;;;;;;5058602;28;1479;-69
2023/12/20 04:06:42;;;;;;;;;;;18.70;66.30;;;;;;5062401;28;1173;-69
2023/12/20 04:09:09;;;;;;;;;;;18.70;66.30;;;;;;5058866;28;1580;-68
2023/12/20 04:11:34;;;;;;;;;;;18.70;66.30;;;;;;5061729;28;1528;-69
2023/12/20 04:14:00;;;;;;;;;;;18.70;66.30;;;;;;5060436;28;1357;-69
2023/12/20 04:16:26;;;;;;;;;;;18.70;66.30;;;;;;5062374;28;1378;-69
2023/12/20 04:18:51;;;;;;;;;;;18.60;66.20;;;;;;5058888;28;931;-69
2023/12/20 04:21:17;;;;;;;;;;;18.60;66.20;;;;;;5092304;28;1991;-69
2023/12/20 04:23:43;;;;;;;;;;;18.60;66.20;;;;;;5060299;28;1133;-69
2023/12/20 04:26:09;;;;;;;;;;;18.60;66.20;;;;;;5092517;28;1159;-68
2023/12/20 04:28:34;;;;;;;;;;;18.60;66.20;;;;;;5060423;28;1615;-68
2023/12/20 04:30:59;;;;;;;;;;;18.60;66.20;;;;;;5091729;28;1463;-67
2023/12/20 04:33:25;;;;;;;;;;;18.60;66.20;;;;;;5063908;28;1477;-67
2023/12/20 04:35:51;;;;;;;;;;;18.60;66.20;;;;;;5061377;28;1165;-67
2023/12/20 04:38:16;;;;;;;;;;;18.60;66.20;;;;;;5061937;28;1367;-67
2023/12/20 04:40:42;;;;;;;;;;;18.60;66.20;;;;;;5061718;28;1894;-67
2023/12/20 04:43:08;;;;;;;;;;;18.60;66.20;;;;;;5060824;28;1300;-68
2023/12/20 04:45:34;;;;;;;;;;;18.60;66.20;;;;;;5066104;28;1410;-68
2023/12/20 04:47:59;;;;;;;;;;;18.60;66.20;;;;;;5093427;28;1354;-68
2023/12/20 04:50:25;;;;;;;;;;;18.60;66.20;;;;;;5061314;28;1367;-68
2023/12/20 04:52:50;;;;;;;;;;;18.60;66.20;;;;;;5059585;28;1264;-69
2023/12/20 04:55:16;;;;;;;;;;;18.60;66.20;;;;;;5078439;28;1268;-69
2023/12/20 04:57:42;;;;;;;;;;;18.60;66.20;;;;;;5059472;28;1280;-69
2023/12/20 05:00:08;;;;;;;;;;;18.60;66.30;;;;;;5058135;28;1902;-68
2023/12/20 05:02:34;;;;;;;;;;;18.60;66.20;;;;;;5057458;28;1437;-68
2023/12/20 05:05:00;;;;;;;;;;;18.60;66.20;;;;;;5057735;28;1550;-68
2023/12/20 05:07:25;;;;;;;;;;;18.60;66.20;;;;;;5058270;28;1438;-68
2023/12/20 05:09:51;;;;;;;;;;;18.60;66.20;;;;;;5059193;28;1467;-68
2023/12/20 05:12:16;;;;;;;;;;;18.60;66.20;;;;;;5060516;28;1523;-68
2023/12/20 05:14:42;;;;;;;;;;;18.60;66.20;;;;;;5090975;28;1407;-68
2023/12/20 05:17:07;;;;;;;;;;;18.60;66.10;;;;;;5056874;28;1480;-69
2023/12/20 05:19:35;;;;;;;;;;;18.60;66.00;;;;;;5055102;28;1979;-69
2023/12/20 05:22:01;;;;;;;;;;;18.70;66.10;;;;;;5090775;28;1264;-67
2023/12/20 05:24:26;;;;;;;;;;;18.70;65.90;;;;;;5059147;28;1336;-67
2023/12/20 05:26:52;;;;;;;;;;;18.70;65.80;;;;;;5062811;28;1297;-68
2023/12/20 05:29:17;;;;;;;;;;;18.80;65.80;;;;;;5060982;28;1380;-68
2023/12/20 05:31:43;;;;;;;;;;;18.80;65.70;;;;;;5061201;28;1296;-69
2023/12/20 05:34:08;;;;;;;;;;;18.80;65.60;;;;;;5060930;28;1271;-70
2023/12/20 05:36:34;;;;;;;;;;;18.80;65.50;;;;;;5061228;28;1448;-68
2023/12/20 05:38:59;;;;;;;;;;;18.80;65.50;;;;;;5061389;28;1413;-68
2023/12/20 05:41:25;;;;;;;;;;;18.80;65.50;;;;;;5063906;28;1910;-66
2023/12/20 05:43:50;;;;;;;;;;;18.80;65.40;;;;;;5062748;28;1613;-67
2023/12/20 05:46:16;;;;;;;;;;;18.80;65.40;;;;;;5061032;28;1504;-67
2023/12/20 05:48:41;;;;;;;;;;;18.90;65.40;;;;;;5061964;28;1250;-68
2023/12/20 05:51:07;;;;;;;;;;;18.90;65.30;;;;;;5064565;28;1406;-69
2023/12/20 05:53:33;;;;;;;;;;;18.90;65.30;;;;;;5061683;28;1480;-68
2023/12/20 05:55:59;;;;;;;;;;;18.90;65.20;;;;;;5094739;28;1391;-68
2023/12/20 05:58:25;;;;;;;;;;;18.90;65.20;;;;;;5061899;28;1346;-71
2023/12/20 06:00:50;;;;;;;;;;;18.90;65.20;;;;;;5061143;28;1901;-68
2023/12/20 06:03:16;;;;;;;;;;;18.90;65.10;;;;;;5059834;28;2089;-69
2023/12/20 06:05:41;;;;;;;;;;;18.90;65.10;;;;;;5061317;28;1190;-69
2023/12/20 06:08:06;;;;;;;;;;;18.90;65.00;;;;;;5059721;28;1294;-68
2023/12/20 06:10:32;;;;;;;;;;;18.90;64.90;;;;;;5057952;28;1356;-68
2023/12/20 06:13:00;;;;;;;;;;;19.00;65.00;;;;;;5057617;28;1252;-68
2023/12/20 06:15:26;;;;;;;;;;;19.00;64.90;;;;;;5061699;28;2205;-68
2023/12/20 06:17:51;;;;;;;;;;;18.90;64.80;;;;;;5058483;28;1386;-68
2023/12/20 06:20:17;;;;;;;;;;;19.00;64.90;;;;;;5056777;28;1999;-67
2023/12/20 06:22:42;;;;;;;;;;;19.00;64.80;;;;;;5057543;28;1776;-69
2023/12/20 06:25:08;;;;;;;;;;;19.00;64.80;;;;;;5060846;28;1376;-70
2023/12/20 06:27:33;;;;;;;;;;;19.00;64.80;;;;;;5059705;28;1410;-69
2023/12/20 06:29:59;;;;;;;;;;;19.00;64.70;;;;;;5092006;28;1323;-69
2023/12/20 06:32:24;;;;;;;;;;;19.00;64.70;;;;;;5059997;28;1321;-69
2023/12/20 06:34:50;;;;;;;;;;;19.00;64.70;;;;;;5061880;28;1150;-68
2023/12/20 06:37:15;;;;;;;;;;;19.00;64.70;;;;;;5061655;28;1330;-69
2023/12/20 06:39:41;;;;;;;;;;;19.00;64.70;;;;;;5059583;28;1973;-68
2023/12/20 06:42:06;;;;;;;;;;;19.00;64.60;;;;;;5058361;28;1440;-68
2023/12/20 06:44:32;;;;;;;;;;;19.00;64.50;;;;;;5060989;28;1348;-68
2023/12/20 06:46:57;;;;;;;;;;;19.00;64.50;;;;;;5059019;28;1358;-68
2023/12/20 06:49:23;;;;;;;;;;;19.00;64.50;;;;;;5058813;28;1344;-69
2023/12/20 06:51:48;;;;;;;;;;;19.00;64.50;;;;;;5059279;28;1368;-69
2023/12/20 06:54:14;;;;;;;;;;;19.00;64.50;;;;;;5058922;28;1275;-69
2023/12/20 06:56:39;;;;;;;;;;;19.00;64.50;;;;;;5089341;28;1550;-69
2023/12/20 06:59:06;;;;;;;;;;;19.00;64.50;;;;;;5056372;28;1332;-69
2023/12/20 07:01:31;;;;;;;;;;;19.10;64.50;;;;;;5058885;28;1951;-70
2023/12/20 07:03:57;;;;;;;;;;;19.00;64.50;;;;;;5059150;28;1596;-69
2023/12/20 07:06:22;;;;;;;;;;;19.10;64.50;;;;;;5059151;28;1339;-69
2023/12/20 07:08:48;;;;;;;;;;;19.10;64.50;;;;;;5092810;28;1346;-68
2023/12/20 07:11:13;;;;;;;;;;;19.00;64.40;;;;;;5058933;28;1356;-67
2023/12/20 07:13:39;;;;;;;;;;;19.00;64.50;;;;;;5060045;28;1236;-70
2023/12/20 07:16:04;;;;;;;;;;;19.10;64.60;;;;;;5056700;28;1336;-69
2023/12/20 07:18:30;;;;;;;;;;;19.10;64.50;;;;;;5057972;28;1407;-69
2023/12/20 07:20:55;;;;;;;;;;;19.10;64.50;;;;;;5055744;28;1981;-69
2023/12/20 07:23:21;;;;;;;;;;;19.10;64.50;;;;;;5055798;28;1213;-70
2023/12/20 07:25:46;;;;;;;;;;;19.10;64.50;;;;;;5060605;28;1591;-71
2023/12/20 07:28:12;;;;;;;;;;;19.10;64.50;;;;;;5057219;28;1301;-71
2023/12/20 07:30:37;;;;;;;;;;;19.10;64.50;;;;;;5057363;28;1394;-72
2023/12/20 07:33:03;;;;;;;;;;;19.10;64.50;;;;;;5057224;28;1500;-70
2023/12/20 07:35:28;;;;;;;;;;;19.10;64.50;;;;;;5055911;28;1344;-72
2023/12/20 07:37:54;;;;;;;;;;;19.00;64.40;;;;;;5057489;28;1229;-71
2023/12/20 07:40:19;;;;;;;;;;;19.00;64.40;;;;;;5056213;28;1914;-72
2023/12/20 07:42:45;;;;;;;;;;;19.00;64.40;;;;;;5057616;28;1252;-70
2023/12/20 07:45:11;;;;;;;;;;;19.10;64.50;;;;;;5057167;28;1476;-68
2023/12/20 07:47:37;;;;;;;;;;;19.00;64.40;;;;;;5073656;28;1368;-69
2023/12/20 07:50:02;;;;;;;;;;;19.10;64.50;;;;;;5062365;28;1434;-69
2023/12/20 07:52:28;;;;;;;;;;;19.10;64.50;;;;;;5056898;28;1192;-69
2023/12/20 07:54:54;;;;;;;;;;;19.00;64.40;;;;;;5055979;28;1358;-69
2023/12/20 07:57:19;;;;;;;;;;;19.10;64.50;;;;;;5054338;28;1608;-71
2023/12/20 07:59:45;;;;;;;;;;;19.00;64.40;;;;;;5075782;28;1965;-69
2023/12/20 08:02:10;;;;;;;;;;;19.00;64.40;;;;;;5057337;28;1224;-69
2023/12/20 08:04:36;;;;;;;;;;;19.00;64.40;;;;;;5059470;28;1426;-69
2023/12/20 08:07:01;;;;;;;;;;;19.00;64.50;;;;;;5056298;28;1308;-69
2023/12/20 08:09:27;;;;;;;;;;;19.00;64.40;;;;;;5076129;28;1600;-69
2023/12/20 08:11:52;;;;;;;;;;;19.00;64.40;;;;;;5059833;28;1492;-70
2023/12/20 08:14:19;;;;;;;;;;;19.00;64.50;;;;;;5055998;28;1399;-69
2023/12/20 08:16:44;;;;;;;;;;;19.00;64.50;;;;;;5057511;28;1683;-69
2023/12/20 08:19:10;;;;;;;;;;;19.00;64.50;;;;;;5088145;28;2172;-70
2023/12/20 08:21:35;;;;;;;;;;;19.00;64.50;;;;;;5089238;28;1992;-70
2023/12/20 08:24:01;;;;;;;;;;;19.00;64.50;;;;;;5088959;28;1249;-69
2023/12/20 08:26:26;;;;;;;;;;;19.00;64.60;;;;;;5058118;28;1358;-70
2023/12/20 08:28:52;;;;;;;;;;;19.00;64.50;;;;;;5056851;28;1445;-69
2023/12/20 08:31:17;;;;;;;;;;;19.00;64.60;;;;;;5061728;28;1353;-69
2023/12/20 08:33:43;;;;;;;;;;;19.00;64.60;;;;;;5062532;28;1469;-69
2023/12/20 08:36:09;;;;;;;;;;;19.00;64.60;;;;;;5059246;28;1207;-69
2023/12/20 08:38:34;;;;;;;;;;;18.90;64.60;;;;;;5064014;28;955;-68
2023/12/20 08:41:01;;;;;;;;;;;19.00;64.70;;;;;;5094415;28;1906;-69
2023/12/20 08:43:26;;;;;;;;;;;19.00;64.70;;;;;;5057990;28;1261;-69
2023/12/20 08:45:52;;;;;;;;;;;18.90;64.70;;;;;;5059539;28;1204;-69
2023/12/20 08:48:17;;;;;;;;;;;19.00;64.80;;;;;;5059127;28;1253;-69
2023/12/20 08:50:43;;;;;;;;;;;18.90;64.70;;;;;;5060560;28;1366;-70
2023/12/20 08:53:08;;;;;;;;;;;18.90;64.70;;;;;;5062570;28;1134;-70
2023/12/20 08:55:34;;;;;;;;;;;18.90;64.80;;;;;;5062801;28;896;-70
2023/12/20 08:57:59;;;;;;;;;;;18.90;64.80;;;;;;5060173;28;911;-71
2023/12/20 09:00:27;;;;;;;;;;;18.90;64.80;;;;;;5061167;28;1965;-70
2023/12/20 09:02:53;;;;;;;;;;;18.90;64.80;;;;;;5057290;28;1409;-70
2023/12/20 09:05:18;;;;;;;;;;;18.90;64.80;;;;;;5062237;28;1278;-69
2023/12/20 09:07:44;;;;;;;;;;;18.90;64.80;;;;;;5094730;28;1061;-71
2023/12/20 09:10:09;;;;;;;;;;;18.90;64.90;;;;;;5058541;28;1362;-70
2023/12/20 09:12:35;;;;;;;;;;;18.90;64.90;;;;;;5062485;28;1214;-68
2023/12/20 09:15:02;;;;;;;;;;;18.90;64.90;;;;;;5058672;28;1512;-68
2023/12/20 09:17:28;;;;;;;;;;;18.90;64.90;;;;;;5059615;28;1464;-69
2023/12/20 09:19:54;;;;;;;;;;;18.90;65.00;;;;;;5061518;28;1910;-68
2023/12/20 09:22:19;;;;;;;;;;;18.80;64.90;;;;;;5060704;28;1510;-68
2023/12/20 09:24:44;;;;;;;;;;;18.80;64.90;;;;;;5057660;28;1165;-69
2023/12/20 09:27:10;;;;;;;;;;;18.90;65.00;;;;;;5060845;28;1258;-70
2023/12/20 09:29:35;;;;;;;;;;;18.90;65.00;;;;;;5058842;28;1517;-69
2023/12/20 09:32:01;;;;;;;;;;;18.90;65.00;;;;;;5060221;28;1361;-70
2023/12/20 09:34:27;;;;;;;;;;;18.80;65.00;;;;;;5058850;28;1369;-69
2023/12/20 09:36:52;;;;;;;;;;;18.80;65.00;;;;;;5057312;28;1584;-70
2023/12/20 09:39:21;;;;;;;;;;;18.80;65.00;;;;;;5089035;28;1276;-69
2023/12/20 09:42:07;;;;;;;;;;;18.80;65.00;;;;;;5060542;28;1254;-69
2023/12/20 09:44:34;;;;;;;;;;;18.80;65.80;;;;;;5059383;28;1506;-69
2023/12/20 09:47:01;;;;;;;;;;;18.80;65.00;;;;;;5056068;28;1416;-69
2023/12/20 09:49:27;;;;;;;;;;;18.80;65.00;;;;;;5091646;28;1394;-70
2023/12/20 09:51:53;;;;;;;;;;;18.80;65.00;;;;;;5078028;28;1382;-69
2023/12/20 09:54:18;;;;;;;;;;;18.80;65.00;;;;;;5055388;28;1488;-69
2023/12/20 09:56:44;;;;;;;;;;;18.80;65.00;;;;;;5075872;28;1215;-69
2023/12/20 09:59:10;;;;;;;;;;;18.80;65.00;;;;;;5057960;28;1340;-69
2023/12/20 10:01:35;;;;;;;;;;;18.80;65.00;;;;;;5058095;28;1910;-70
2023/12/20 10:04:01;;;;;;;;;;;18.80;65.00;;;;;;5091531;28;1214;-69
2023/12/20 10:06:27;;;;;;;;;;;18.80;64.90;;;;;;5090035;28;917;-70
2023/12/20 10:08:53;;;;;;;;;;;18.80;64.90;;;;;;5060293;28;1364;-69
2023/12/20 10:11:19;;;;;;;;;;;18.90;65.00;;;;;;5058383;28;1483;-69
2023/12/20 10:13:44;;;;;;;;;;;18.80;64.80;;;;;;5060299;28;1213;-70
2023/12/20 10:16:10;;;;;;;;;;;18.90;64.90;;;;;;5056592;28;1624;-70
2023/12/20 10:18:36;;;;;;;;;;;18.90;64.90;;;;;;5056673;28;2233;-70
2023/12/20 10:21:01;;;;;;;;;;;18.90;64.80;;;;;;5091860;28;1905;-70
2023/12/20 10:23:27;;;;;;;;;;;18.90;64.80;;;;;;5094390;28;1483;-69
2023/12/20 10:25:56;;;;;;;;;;;18.90;64.80;;;;;;5059329;28;851;-70
2023/12/20 10:28:23;;;;;;;;;;;18.90;64.70;;;;;;5059794;28;1131;-69
2023/12/20 10:30:48;;;;;;;;;;;18.90;64.70;;;;;;5057614;28;1398;-70
2023/12/20 10:33:15;;;;;;;;;;;18.90;64.80;;;;;;5054822;28;1145;-71
2023/12/20 10:35:41;;;;;;;;;;;18.90;64.70;;;;;;5077005;28;1288;-72
2023/12/20 10:38:07;;;;;;;;;;;18.90;64.70;;;;;;5062751;28;1284;-72
2023/12/20 10:40:34;;;;;;;;;;;18.90;64.70;;;;;;5091050;28;1901;-71
2023/12/20 10:42:59;;;;;;;;;;;18.90;64.70;;;;;;5060927;28;1026;-72
2023/12/20 10:45:25;;;;;;;;;;;18.90;64.60;;;;;;5055636;28;2144;-71
2023/12/20 10:47:51;;;;;;;;;;;18.90;64.60;;;;;;5055971;28;1367;-71
2023/12/20 10:50:16;;;;;;;;;;;18.90;64.60;;;;;;5058031;28;1448;-70
2023/12/20 10:52:42;;;;;;;;;;;18.90;64.60;;;;;;5075010;28;2517;-71
2023/12/20 10:55:08;;;;;;;;;;;18.90;64.60;;;;;;5074418;28;1293;-71
2023/12/20 10:57:33;;;;;;;;;;;18.90;64.60;;;;;;5056799;28;1543;-70
2023/12/20 11:00:00;;;;;;;;;;;18.90;64.60;;;;;;5058057;28;1894;-71
2023/12/20 11:02:26;;;;;;;;;;;18.90;64.50;;;;;;5058867;28;1499;-71
2023/12/20 11:05:10;;;;;;;;;;;18.90;64.50;;;;;;5090001;28;1380;-71
2023/12/20 11:07:37;;;;;;;;;;;19.00;64.50;;;;;;5058059;28;1435;-72
2023/12/20 11:10:20;;;;;;;;;;;19.00;64.40;;;;;;5054623;28;1517;-71
2023/12/20 11:12:51;;;;;;;;;;;19.00;64.40;;;;;;5057176;28;1332;-71
2023/12/20 11:15:17;;;;;;;;;;;19.00;64.30;;;;;;5090133;28;1401;-69
2023/12/20 11:17:44;;;;;;;;;;;19.00;64.20;;;;;;5056786;28;1392;-71
2023/12/20 11:20:11;;;;;;;;;;;19.00;64.10;;;;;;5086261;28;1893;-70
2023/12/20 11:22:38;;;;;;;;;;;19.00;64.00;;;;;;5056015;28;1484;-71
2023/12/20 11:25:03;;;;;;;;;;;19.10;64.10;;;;;;5059325;28;1247;-71
2023/12/20 11:27:30;;;;;;;;;;;19.10;64.00;;;;;;5058591;28;1181;-70
2023/12/20 11:29:56;;;;;;;;;;;19.10;64.00;;;;;;5055128;28;1829;-71
2023/12/20 11:32:28;;;;;;;;;;;19.10;63.90;;;;;;5061076;28;1707;-69
2023/12/20 11:34:56;;;;;;;;;;;19.10;63.90;;;;;;5059876;28;895;-69
2023/12/20 11:37:22;;;;;;;;;;;19.10;63.90;;;;;;5056206;28;1340;-68
2023/12/20 11:39:55;;;;;;;;;;;19.10;63.90;;;;;;5054427;28;1899;-71
2023/12/20 11:42:20;;;;;;;;;;;19.10;63.90;;;;;;5056284;28;1028;-69
2023/12/20 11:44:46;;;;;;;;;;;19.10;63.90;;;;;;5060308;28;1253;-70
2023/12/20 11:47:12;;;;;;;;;;;19.10;63.90;;;;;;5055834;28;883;-69
2023/12/20 11:49:38;;;;;;;;;;;19.10;63.90;;;;;;5071658;28;1348;-71
2023/12/20 11:52:03;;;;;;;;;;;19.10;64.00;;;;;;5056313;28;1237;-69
2023/12/20 11:54:30;;;;;;;;;;;19.10;64.00;;;;;;5057847;28;934;-69
2023/12/20 11:56:55;;;;;;;;;;;19.10;64.00;;;;;;5054977;28;907;-69
2023/12/20 11:59:20;;;;;;;;;;;19.10;64.00;;;;;;5071842;28;1278;-69
2023/12/20 12:01:52;;;;;;;;;;;19.10;64.10;;;;;;5054345;28;1890;-70
2023/12/20 12:04:18;;;;;;;;;;;19.00;64.00;;;;;;5057578;28;1829;-69
2023/12/20 12:06:44;;;;;;;;;;;19.00;64.00;;;;;;5093617;28;1824;-70
2023/12/20 12:09:10;;;;;;;;;;;19.00;64.00;;;;;;5090153;28;1360;-70
2023/12/20 12:11:35;;;;;;;;;;;19.00;64.00;;;;;;5060542;28;1608;-67
2023/12/20 12:14:01;;;;;;;;;;;19.00;64.10;;;;;;5060453;28;1467;-68
2023/12/20 12:16:26;;;;;;;;;;;19.00;64.10;;;;;;5093335;28;1457;-68
2023/12/20 12:18:55;;;;;;;;;;;19.00;64.10;;;;;;5059607;28;1128;-70
2023/12/20 12:21:21;;;;;;;;;;;19.00;64.20;;;;;;5062078;28;1977;-68
2023/12/20 12:23:46;;;;;;;;;;;19.00;64.20;;;;;;5061191;28;1613;-69
2023/12/20 12:26:12;;;;;;;;;;;19.00;64.20;;;;;;5063003;28;1841;-71
2023/12/20 12:28:39;;;;;;;;;;;19.00;64.20;;;;;;5063755;28;1273;-70
2023/12/20 12:31:05;;;;;;;;;;;19.00;64.40;;;;;;5060767;28;1413;-72
2023/12/20 12:33:30;;;;;;;;;;;19.00;64.80;;;;;;5062449;28;1632;-67
2023/12/20 12:35:56;;;;;;;;;;;19.00;64.20;;;;;;5068987;28;1281;-70
2023/12/20 12:38:21;;;;;;;;;;;19.00;64.20;;;;;;5092517;28;1401;-68
2023/12/20 12:40:47;;;;;;;;;;;19.00;64.30;;;;;;5062112;28;2005;-69
2023/12/20 12:43:12;;;;;;;;;;;19.00;64.30;;;;;;5060715;28;1250;-72
2023/12/20 12:45:38;;;;;;;;;;;19.00;64.40;;;;;;5061253;28;1361;-69
2023/12/20 12:48:04;;;;;;;;;;;19.00;64.50;;;;;;5092979;28;1392;-71
2023/12/20 12:50:30;;;;;;;;;;;19.00;64.40;;;;;;5091893;28;1844;-70
2023/12/20 12:52:55;;;;;;;;;;;18.90;64.40;;;;;;5062250;28;1260;-71
2023/12/20 12:55:21;;;;;;;;;;;18.90;64.40;;;;;;5059532;28;1344;-70
2023/12/20 12:57:46;;;;;;;;;;;18.90;64.40;;;;;;5058907;28;1453;-71
2023/12/20 13:00:12;;;;;;;;;;;18.90;64.50;;;;;;5058320;28;1906;-71
2023/12/20 13:02:37;;;;;;;;;;;18.90;64.50;;;;;;5057137;28;1266;-72
2023/12/20 13:05:04;;;;;;;;;;;18.90;64.50;;;;;;5091937;28;1629;-71
2023/12/20 13:07:29;;;;;;;;;;;18.90;64.60;;;;;;5059329;28;1222;-72
2023/12/20 13:09:55;;;;;;;;;;;18.90;64.60;;;;;;5092256;28;1350;-71
2023/12/20 13:12:21;;;;;;;;;;;18.90;64.60;;;;;;5093098;28;1407;-70
2023/12/20 13:14:47;;;;;;;;;;;18.90;64.70;;;;;;5059801;28;1500;-70
2023/12/20 13:17:12;;;;;;;;;;;18.90;64.70;;;;;;5090340;28;1405;-70
2023/12/20 13:19:38;;;;;;;;;;;18.90;64.70;;;;;;5060544;28;1922;-70
2023/12/20 13:22:03;;;;;;;;;;;18.90;64.70;;;;;;5057231;28;1261;-70
2023/12/20 13:24:29;;;;;;;;;;;18.90;64.70;;;;;;5060195;28;1228;-70
2023/12/20 13:26:55;;;;;;;;;;;18.90;64.80;;;;;;5059088;28;1512;-70
2023/12/20 13:29:20;;;;;;;;;;;18.80;64.70;;;;;;5057472;28;1390;-70
2023/12/20 13:31:45;;;;;;;;;;;18.80;64.80;;;;;;5092171;28;1465;-70
2023/12/20 13:34:12;;;;;;;;;;;18.80;64.80;;;;;;5060056;28;1897;-71
2023/12/20 13:36:37;;;;;;;;;;;18.80;64.80;;;;;;5058231;28;1299;-70
2023/12/20 13:39:04;;;;;;;;;;;18.80;65.60;;;;;;5089577;28;1342;-71
2023/12/20 13:41:30;;;;;;;;;;;18.80;64.80;;;;;;5057079;28;1902;-70
2023/12/20 13:43:55;;;;;;;;;;;18.80;64.90;;;;;;5047157;28;4075;-71
2023/12/20 13:46:21;;;;;;;;;;;18.80;64.90;;;;;;5053474;28;4385;-71
2023/12/20 13:48:46;;;;;;;;;;;18.80;64.90;;;;;;5058604;28;3234;-71
2023/12/20 13:51:12;;;;;;;;;;;18.80;64.90;;;;;;5058218;28;1443;-71
2023/12/20 13:53:38;;;;;;;;;;;18.80;64.90;;;;;;5058245;28;1586;-70
2023/12/20 13:56:04;;;;;;;;;;;18.80;64.90;;;;;;5056697;28;1994;-71
2023/12/20 13:58:29;;;;;;;;;;;18.80;64.90;;;;;;5060284;28;1518;-71
2023/12/20 14:00:55;;;;;;;;;;;18.80;64.80;;;;;;5058309;28;1985;-71
2023/12/20 14:03:20;;;;;;;;;;;18.80;64.90;;;;;;5058368;28;2141;-71
2023/12/20 14:05:46;;;;;;;;;;;18.80;64.90;;;;;;5060284;28;1341;-71
2023/12/20 14:08:11;;;;;;;;;;;18.80;64.90;;;;;;5060501;28;1330;-72
2023/12/20 14:10:38;;;;;;;;;;;18.80;64.90;;;;;;5060128;28;1394;-71
2023/12/20 14:13:05;;;;;;;;;;;18.80;64.90;;;;;;5054941;28;1266;-71
2023/12/20 14:15:35;;;;;;;;;;;18.80;64.90;;;;;;5056784;28;1310;-71
2023/12/20 14:18:01;;;;;;;;;;;18.80;64.90;;;;;;5059313;28;1424;-71
2023/12/20 14:20:26;;;;;;;;;;;18.80;64.90;;;;;;5089747;28;1979;-70
2023/12/20 14:22:52;;;;;;;;;;;18.80;64.90;;;;;;5060158;28;1247;-70